Time;durP1;ratioP1;P1;durP2;ratioP2;P2;SDS_P1;SDS_P2;PMS_P1;PMS_P2;Temp;Humidity;BMP_temperature;BMP_pressure;BME280_temperature;BME280_humidity;BME280_pressure;Samples;Min_cycle;Max_cycle;Signal;HPM_P1;HPM_P2
2021/09/01 00:00:37;;;;;;;15.00;7.20;;;16.30;99.90;;;16.11;95.73;102098.09;4171163;28;20027;-68
2021/09/01 00:02:39;;;;;;;10.60;6.28;;;16.20;99.90;;;16.10;95.88;102108.94;4202905;28;20042;-68
2021/09/01 00:04:40;;;;;;;12.32;7.55;;;16.20;99.90;;;16.17;95.39;102112.59;4186485;28;20029;-68
2021/09/01 00:06:41;;;;;;;10.43;7.40;;;16.20;99.90;;;16.08;95.67;102100.25;4171013;28;20035;-68
2021/09/01 00:08:42;;;;;;;16.05;7.88;;;16.20;99.90;;;16.09;95.35;102105.44;4202982;28;20078;-68
2021/09/01 00:10:44;;;;;;;9.23;6.30;;;16.20;99.90;;;16.02;96.04;102107.03;4171066;28;20026;-68
2021/09/01 00:12:45;;;;;;;13.85;7.13;;;16.20;99.90;;;15.96;97.22;102110.34;4202836;28;20060;-68
2021/09/01 00:14:46;;;;;;;14.15;6.55;;;16.10;99.90;;;16.04;96.24;102107.72;4170999;28;20105;-68
2021/09/01 00:16:47;;;;;;;12.98;6.63;;;16.10;99.90;;;15.97;96.75;102114.66;4170985;28;20036;-68
2021/09/01 00:18:48;;;;;;;14.25;7.18;;;16.10;99.90;;;15.91;96.68;102116.16;4170948;28;20124;-68
2021/09/01 00:20:49;;;;;;;15.00;6.50;;;16.00;99.90;;;15.88;97.93;102115.63;4202437;28;20024;-68
2021/09/01 00:22:49;;;;;;;14.35;7.82;;;16.00;99.90;;;15.87;96.97;102105.94;4171013;28;20057;-68
2021/09/01 00:24:50;;;;;;;15.93;6.68;;;16.00;99.90;;;15.83;97.86;102115.25;4202746;28;20028;-68
2021/09/01 00:26:51;;;;;;;13.93;7.43;;;16.00;99.90;;;15.95;96.08;102098.84;4169713;28;20057;-68
2021/09/01 00:28:53;;;;;;;13.15;7.00;;;16.00;99.90;;;16.03;95.95;102109.56;4200866;28;20457;-68
2021/09/01 00:30:54;;;;;;;10.88;6.20;;;16.00;99.90;;;15.90;96.60;102116.28;4186201;28;20086;-68
2021/09/01 00:32:55;;;;;;;11.63;6.95;;;16.00;99.90;;;15.81;96.72;102115.41;4154398;28;20057;-68
2021/09/01 00:34:55;;;;;;;17.25;7.40;;;16.00;99.90;;;15.81;96.33;102107.41;4185981;28;20025;-68
2021/09/01 00:36:56;;;;;;;10.43;6.90;;;15.90;99.90;;;15.92;96.76;102124.94;4136395;28;20034;-68
2021/09/01 00:38:57;;;;;;;13.70;7.03;;;15.90;99.90;;;15.83;96.68;102117.91;4154314;28;20381;-68
2021/09/01 00:40:58;;;;;;;15.55;8.50;;;15.90;99.90;;;15.89;96.60;102123.44;4169278;28;20028;-68
2021/09/01 00:42:59;;;;;;;12.20;7.13;;;15.80;99.90;;;15.83;96.92;102109.94;4154176;28;20113;-68
2021/09/01 00:45:02;;;;;;;10.80;6.80;;;15.90;99.90;;;15.90;96.65;102119.78;4185696;28;20021;-68
2021/09/01 00:47:05;;;;;;;13.50;7.07;;;15.90;99.90;;;15.89;96.44;102104.81;4154183;28;20057;-68
2021/09/01 00:49:05;;;;;;;15.70;7.32;;;15.90;99.90;;;15.83;96.88;102109.94;4169217;28;20022;-68
2021/09/01 00:51:06;;;;;;;15.70;6.85;;;15.90;99.90;;;15.81;96.54;102102.09;4153733;28;20022;-68
2021/09/01 00:53:09;;;;;;;12.48;7.05;;;15.90;99.90;;;15.83;96.72;102094.78;4185614;28;20500;-68
2021/09/01 00:55:11;;;;;;;15.13;7.10;;;15.80;99.90;;;15.77;96.26;102108.72;4185766;28;20504;-68
2021/09/01 00:57:14;;;;;;;14.65;7.55;;;15.90;99.90;;;15.71;96.53;102112.00;4169154;28;20036;-68
2021/09/01 00:59:15;;;;;;;14.25;7.80;;;15.80;99.90;;;15.75;96.51;102104.53;4202047;28;20082;-68
2021/09/01 01:01:17;;;;;;;14.90;6.80;;;15.80;99.90;;;15.74;96.24;102106.38;4170219;28;20524;-68
2021/09/01 01:03:18;;;;;;;10.82;7.20;;;15.80;99.90;;;15.75;96.69;102107.22;4202159;28;20035;-68
2021/09/01 01:05:19;;;;;;;16.30;7.47;;;15.80;99.90;;;15.70;97.16;102122.81;4169171;28;20025;-68
2021/09/01 01:07:20;;;;;;;10.68;7.28;;;15.80;99.90;;;15.74;96.60;102113.53;4170038;28;20452;-68
2021/09/01 01:09:22;;;;;;;13.90;6.63;;;15.80;99.90;;;15.70;97.07;102109.50;4170236;28;20033;-68
2021/09/01 01:11:23;;;;;;;15.45;7.80;;;15.80;99.90;;;15.83;95.64;102109.94;4202176;28;20064;-68
2021/09/01 01:13:29;;;;;;;14.88;8.18;;;15.80;99.90;;;15.77;95.66;102114.03;4170150;28;20061;-68
2021/09/01 01:15:30;;;;;;;12.80;7.55;;;15.80;99.90;;;15.73;96.41;102109.19;4170010;28;20401;-68
2021/09/01 01:17:31;;;;;;;13.18;7.10;;;15.80;99.90;;;15.69;96.82;102106.00;4202059;28;20033;-68
2021/09/01 01:19:34;;;;;;;10.32;6.43;;;15.80;99.90;;;15.63;97.08;102103.13;4170158;28;20489;-68
2021/09/01 01:21:34;;;;;;;11.68;6.88;;;15.70;99.90;;;15.57;97.52;102109.06;4201696;28;20020;-68
2021/09/01 01:23:35;;;;;;;14.68;7.75;;;15.70;99.90;;;15.57;97.55;102106.41;4170002;28;20374;-68
2021/09/01 01:25:40;;;;;;;14.77;7.20;;;15.70;99.90;;;15.65;96.67;102095.84;4169822;28;20021;-68
2021/09/01 01:27:44;;;;;;;14.35;7.53;;;15.70;99.90;;;15.56;97.78;102099.44;4201815;28;20033;-68
2021/09/01 01:29:44;;;;;;;10.90;7.65;;;15.70;99.90;;;15.49;97.29;102100.06;4168766;28;20096;-68
2021/09/01 01:31:45;;;;;;;20.77;8.20;;;15.60;99.90;;;15.52;97.79;102100.72;4201658;28;20033;-68
2021/09/01 01:33:46;;;;;;;15.23;8.15;;;15.60;99.90;;;15.53;98.22;102099.75;4169746;28;20056;-68
2021/09/01 01:35:48;;;;;;;12.93;7.07;;;15.60;99.90;;;15.46;98.14;102089.69;4201476;28;20036;-68
2021/09/01 01:37:49;;;;;;;14.70;7.45;;;15.60;99.90;;;15.44;97.93;102096.97;4168626;28;20013;-68
2021/09/01 01:39:50;;;;;;;14.15;7.45;;;15.60;99.90;;;15.54;97.68;102098.75;4201588;28;20420;-68
2021/09/01 01:41:51;;;;;;;14.90;7.35;;;15.60;99.90;;;15.49;98.12;102102.72;4169643;28;20022;-68
2021/09/01 01:43:52;;;;;;;12.63;7.68;;;15.50;99.90;;;15.48;97.70;102094.88;4169797;28;20021;-68
2021/09/01 01:45:53;;;;;;;12.43;7.32;;;15.50;99.90;;;15.75;96.37;102101.88;4184925;28;20087;-68
2021/09/01 01:47:54;;;;;;;8.80;6.60;;;15.50;99.90;;;15.59;96.75;102096.47;4169564;28;20135;-68
2021/09/01 01:49:55;;;;;;;12.95;6.97;;;15.60;99.90;;;15.49;97.86;102092.09;4168181;28;20564;-68
2021/09/01 01:51:56;;;;;;;15.85;8.18;;;15.60;99.90;;;15.38;98.14;102092.28;4169382;28;20029;-68
2021/09/01 01:53:56;;;;;;;18.00;7.95;;;15.50;99.90;;;15.46;97.02;102087.03;4169523;28;20022;-68
2021/09/01 01:55:58;;;;;;;14.52;7.63;;;15.50;99.90;;;15.32;97.70;102082.25;4169332;28;20028;-68
2021/09/01 01:58:00;;;;;;;17.73;7.47;;;15.50;99.90;;;15.34;98.45;102093.59;4151698;28;20088;-68
2021/09/01 02:00:03;;;;;;;13.43;7.28;;;15.40;99.90;;;15.37;97.85;102087.13;4169127;28;20048;-68
2021/09/01 02:02:04;;;;;;;12.88;7.38;;;15.40;99.90;;;15.42;97.26;102085.66;4169324;28;20026;-68
2021/09/01 02:04:05;;;;;;;12.95;6.97;;;15.40;99.90;;;15.37;98.21;102077.34;4169333;28;20401;-68
2021/09/01 02:06:06;;;;;;;11.90;6.95;;;15.40;99.90;;;15.28;98.36;102080.91;4168941;28;20033;-68
2021/09/01 02:08:07;;;;;;;13.88;7.45;;;15.40;99.90;;;15.26;98.62;102090.03;4169044;28;20401;-68
2021/09/01 02:10:10;;;;;;;18.63;7.38;;;15.30;99.90;;;15.23;98.58;102080.53;4169265;28;20056;-68
2021/09/01 02:12:11;;;;;;;10.70;7.55;;;15.40;99.90;;;15.27;98.23;102076.56;4168083;28;20153;-68
2021/09/01 02:14:12;;;;;;;12.85;7.70;;;15.30;99.90;;;15.28;97.68;102080.06;4169069;28;20064;-68
2021/09/01 02:16:13;;;;;;;14.43;7.35;;;15.30;99.90;;;15.32;98.22;102087.56;4167980;28;20065;-68
2021/09/01 02:18:14;;;;;;;12.80;7.68;;;15.30;99.90;;;15.30;97.83;102078.94;4169097;28;20029;-68
2021/09/01 02:20:16;;;;;;;16.17;8.27;;;15.30;99.90;;;15.33;97.59;102086.59;4167929;28;20072;-68
2021/09/01 02:22:16;;;;;;;16.35;8.02;;;15.30;99.90;;;15.30;97.35;102076.28;4168744;28;20025;-68
2021/09/01 02:24:17;;;;;;;12.43;7.38;;;15.30;99.90;;;15.28;97.85;102090.72;4169082;28;20037;-68
2021/09/01 02:26:18;;;;;;;11.40;7.70;;;15.30;99.90;;;15.32;97.64;102084.09;4169049;28;20455;-68
2021/09/01 02:28:19;;;;;;;15.63;7.55;;;15.30;99.90;;;15.35;97.13;102075.81;4168919;28;20091;-68
2021/09/01 02:30:22;;;;;;;10.38;7.95;;;15.30;99.90;;;15.30;97.69;102076.28;4167808;28;20026;-68
2021/09/01 02:32:23;;;;;;;11.88;7.45;;;15.30;99.90;;;15.23;98.04;102069.88;4200516;28;20029;-68
2021/09/01 02:34:24;;;;;;;11.57;7.50;;;15.30;99.90;;;15.17;98.56;102085.63;4200652;28;20036;-68
2021/09/01 02:36:25;;;;;;;13.10;7.53;;;15.30;99.90;;;15.13;99.00;102078.94;4168542;28;20117;-68
2021/09/01 02:38:25;;;;;;;11.27;7.28;;;15.30;99.90;;;14.98;99.23;102064.53;4200656;28;20086;-68
2021/09/01 02:40:26;;;;;;;11.38;7.85;;;15.20;99.90;;;15.15;97.83;102072.50;4167796;28;20087;-68
2021/09/01 02:42:27;;;;;;;15.10;7.47;;;15.20;99.90;;;15.01;98.50;102075.69;4168768;28;20030;-68
2021/09/01 02:44:29;;;;;;;14.15;7.85;;;15.20;99.90;;;15.09;98.94;102080.22;4200819;28;20073;-68
2021/09/01 02:46:30;;;;;;;14.60;8.35;;;15.10;99.90;;;15.24;97.56;102079.53;4168775;28;20370;-68
2021/09/01 02:48:31;;;;;;;17.75;8.07;;;15.20;99.90;;;15.14;98.59;102070.00;4168835;28;20087;-68
2021/09/01 02:50:32;;;;;;;13.27;7.28;;;15.20;99.90;;;15.18;98.07;102080.16;4200782;28;20586;-68
2021/09/01 02:52:32;;;;;;;13.48;7.32;;;15.20;99.90;;;15.06;99.05;102078.72;4168540;28;20026;-68
2021/09/01 02:54:33;;;;;;;11.15;7.38;;;15.10;99.90;;;15.12;98.68;102086.09;4168634;28;20033;-68
2021/09/01 02:56:34;;;;;;;11.40;8.50;;;15.10;99.90;;;15.21;97.50;102066.56;4168380;28;20041;-68
2021/09/01 02:58:36;;;;;;;12.30;7.57;;;15.10;99.90;;;15.34;97.02;102074.13;4200421;28;20083;-68
2021/09/01 03:00:37;;;;;;;12.85;7.63;;;15.20;99.90;;;15.25;97.04;102075.06;4168800;28;20104;-68
2021/09/01 03:02:38;;;;;;;12.93;7.35;;;15.20;99.90;;;15.21;97.09;102068.38;4168728;28;20034;-68
2021/09/01 03:04:39;;;;;;;12.65;7.57;;;15.20;99.90;;;15.12;98.09;102074.59;4200420;28;20029;-68
2021/09/01 03:06:40;;;;;;;13.80;8.05;;;15.20;99.90;;;15.13;98.41;102079.78;4168441;28;20032;-68
2021/09/01 03:08:41;;;;;;;11.98;7.30;;;15.10;99.90;;;15.11;98.52;102078.28;4200365;28;20055;-68
2021/09/01 03:10:42;;;;;;;13.45;6.97;;;15.20;99.90;;;15.02;99.02;102061.44;4168544;28;20060;-68
2021/09/01 03:12:42;;;;;;;14.52;7.78;;;15.10;99.90;;;14.96;99.35;102064.69;4200288;28;20115;-68
2021/09/01 03:14:43;;;;;;;12.05;8.25;;;15.10;99.90;;;14.94;100.00;102082.59;4168677;28;20397;-68
2021/09/01 03:16:44;;;;;;;13.13;8.13;;;15.00;99.90;;;14.97;99.83;102084.94;4183812;28;20091;-68
2021/09/01 03:18:45;;;;;;;13.80;7.18;;;15.00;99.90;;;14.89;100.00;102098.16;4168384;28;20127;-68
2021/09/01 03:20:46;;;;;;;17.23;8.68;;;15.00;99.90;;;15.01;98.47;102083.66;4167620;28;20513;-68
2021/09/01 03:22:47;;;;;;;13.48;7.40;;;15.00;99.90;;;15.02;99.43;102087.16;4168489;28;20021;-68
2021/09/01 03:24:48;;;;;;;11.70;7.07;;;15.00;99.90;;;14.91;98.66;102080.22;4168397;28;20028;-68
2021/09/01 03:26:49;;;;;;;10.57;7.93;;;15.00;99.90;;;14.84;99.72;102089.81;4168323;28;20508;-68
2021/09/01 03:28:50;;;;;;;12.88;8.05;;;14.90;99.90;;;14.79;100.00;102071.66;4168249;28;20100;-68
2021/09/01 03:30:51;;;;;;;14.77;7.60;;;14.90;99.90;;;14.81;100.00;102084.81;4200305;28;20515;-68
2021/09/01 03:32:52;;;;;;;14.32;7.88;;;14.90;99.90;;;14.72;100.00;102077.72;4168364;28;20034;-68
2021/09/01 03:34:53;;;;;;;11.73;7.40;;;14.90;99.90;;;14.73;100.00;102076.72;4200259;28;20115;-68
2021/09/01 03:36:54;;;;;;;8.52;6.63;;;14.80;99.90;;;14.71;100.00;102078.72;4167877;28;20038;-68
2021/09/01 03:38:54;;;;;;;10.98;6.95;;;14.80;99.90;;;14.67;100.00;102074.66;4168351;28;20531;-68
2021/09/01 03:40:55;;;;;;;15.27;8.35;;;14.80;99.90;;;14.60;100.00;102058.53;4168347;28;20171;-68
2021/09/01 03:42:56;;;;;;;17.23;8.43;;;14.80;99.90;;;14.74;99.60;102057.16;4168302;28;20022;-68
2021/09/01 03:44:57;;;;;;;13.85;8.10;;;14.70;99.90;;;14.69;100.00;102060.28;4200058;28;20138;-68
2021/09/01 03:46:58;;;;;;;16.45;8.95;;;14.80;99.90;;;14.63;100.00;102057.38;4167108;28;20100;-68
2021/09/01 03:48:59;;;;;;;9.75;7.32;;;14.80;99.90;;;14.66;100.00;102063.25;4200182;28;20409;-68
2021/09/01 03:51:00;;;;;;;11.00;7.28;;;14.70;99.90;;;14.64;99.92;102043.09;4168008;28;20033;-68
2021/09/01 03:53:01;;;;;;;14.18;7.85;;;14.70;99.90;;;14.66;100.00;102047.31;4183317;28;20464;-68
2021/09/01 03:55:02;;;;;;;14.48;8.43;;;14.70;99.90;;;14.69;100.00;102047.00;4168200;28;20048;-68
2021/09/01 03:57:03;;;;;;;12.43;8.35;;;14.70;99.90;;;14.71;99.67;102041.53;4168107;28;20029;-68
2021/09/01 03:59:05;;;;;;;13.55;8.48;;;14.70;99.90;;;14.63;99.79;102054.72;4168076;28;20049;-68
2021/09/01 04:01:06;;;;;;;13.02;8.82;;;14.70;99.90;;;14.55;100.00;102054.63;4199916;28;20122;-68
2021/09/01 04:03:07;;;;;;;12.68;8.10;;;14.70;99.90;;;14.55;100.00;102054.63;4168097;28;20493;-68
2021/09/01 04:05:09;;;;;;;11.75;7.18;;;14.70;99.90;;;14.50;100.00;102055.09;4200032;28;20025;-68
2021/09/01 04:07:09;;;;;;;15.10;7.88;;;14.60;99.90;;;14.47;100.00;102054.53;4167893;28;20068;-68
2021/09/01 04:09:10;;;;;;;16.02;7.82;;;14.60;99.90;;;14.55;100.00;102060.78;4199988;28;20568;-68
2021/09/01 04:11:11;;;;;;;16.20;7.90;;;14.60;99.90;;;14.51;100.00;102047.97;4168096;28;20061;-68
2021/09/01 04:13:12;;;;;;;14.38;9.43;;;14.60;99.90;;;14.66;99.98;102062.41;4168144;28;20021;-68
2021/09/01 04:15:13;;;;;;;15.82;8.63;;;14.60;99.90;;;14.58;99.96;102059.63;4168004;28;20037;-68
2021/09/01 04:17:14;;;;;;;17.88;8.98;;;14.60;99.90;;;14.65;100.00;102053.59;4168002;28;20025;-68
2021/09/01 04:19:15;;;;;;;15.18;8.82;;;14.60;99.90;;;14.57;99.91;102050.88;4167888;28;20048;-68
2021/09/01 04:21:16;;;;;;;20.70;8.10;;;14.60;99.90;;;14.61;100.00;102054.03;4199686;28;20029;-68
2021/09/01 04:23:17;;;;;;;14.68;8.77;;;14.60;99.90;;;14.63;99.67;102044.94;4167724;28;20029;-68
2021/09/01 04:25:18;;;;;;;14.38;8.05;;;14.60;99.90;;;14.52;100.00;102049.63;4194969;28;20024;-68
2021/09/01 04:27:19;;;;;;;11.73;7.72;;;14.60;99.90;;;14.45;100.00;102045.91;4167977;28;20093;-68
2021/09/01 04:29:20;;;;;;;14.15;8.63;;;14.60;99.90;;;14.52;100.00;102052.28;4166846;28;20034;-68
2021/09/01 04:31:20;;;;;;;11.15;7.05;;;14.60;99.90;;;14.56;99.92;102053.66;4169620;28;20021;-68
2021/09/01 04:33:22;;;;;;;15.13;8.90;;;14.60;99.90;;;14.66;99.61;102042.00;4170914;28;20036;-68
2021/09/01 04:35:23;;;;;;;15.98;7.55;;;14.60;99.90;;;14.55;100.00;102039.53;4202502;28;20613;-68
2021/09/01 04:37:24;;;;;;;12.88;8.05;;;14.60;99.90;;;14.54;99.47;102029.91;4170727;28;20489;-68
2021/09/01 04:39:24;;;;;;;15.10;7.93;;;14.60;99.90;;;14.57;98.94;102044.72;4202716;28;20032;-68
2021/09/01 04:41:26;;;;;;;14.90;8.15;;;14.60;99.90;;;14.50;100.00;102031.19;4170742;28;20036;-68
2021/09/01 04:43:27;;;;;;;12.18;7.25;;;14.50;99.90;;;14.40;100.00;102023.28;4202498;28;20047;-68
2021/09/01 04:45:28;;;;;;;18.02;8.90;;;14.50;99.90;;;14.47;100.00;102047.41;4202611;28;20037;-68
2021/09/01 04:47:29;;;;;;;14.48;8.50;;;14.60;99.90;;;14.42;100.00;102048.84;4169462;28;20063;-68
2021/09/01 04:49:30;;;;;;;14.68;8.35;;;14.50;99.90;;;14.48;100.00;102046.44;4169468;28;20025;-68
2021/09/01 04:51:31;;;;;;;16.08;7.65;;;14.50;99.90;;;14.57;100.00;102050.03;4185453;28;20112;-68
2021/09/01 04:53:31;;;;;;;14.45;8.38;;;14.50;99.90;;;14.36;100.00;102042.34;4170635;28;20059;-68
2021/09/01 04:55:32;;;;;;;17.98;7.85;;;14.50;99.90;;;14.54;100.00;102045.00;4202229;28;20028;-68
2021/09/01 04:57:34;;;;;;;11.85;7.35;;;14.50;99.90;;;14.42;99.60;102025.81;4169333;28;20505;-68
2021/09/01 04:59:35;;;;;;;15.63;7.80;;;14.50;99.90;;;14.51;99.83;102047.97;4170166;28;20052;-68
2021/09/01 05:01:35;;;;;;;15.18;9.88;;;14.50;99.90;;;14.37;100.00;102039.50;4170465;28;20025;-68
2021/09/01 05:03:36;;;;;;;15.38;8.35;;;14.40;99.90;;;14.33;100.00;102043.47;4170382;28;20061;-68
2021/09/01 05:05:37;;;;;;;13.00;7.97;;;14.40;99.90;;;14.43;99.96;102039.88;4202018;28;20415;-68
2021/09/01 05:07:38;;;;;;;12.82;8.15;;;14.40;99.90;;;14.51;99.84;102046.16;4202082;28;20052;-68
2021/09/01 05:09:39;;;;;;;14.98;8.00;;;14.40;99.90;;;14.49;99.55;102042.78;4169011;28;20068;-68
2021/09/01 05:11:40;;;;;;;16.88;8.93;;;14.40;99.90;;;14.58;99.21;102043.69;4169062;28;20497;-68
2021/09/01 05:13:41;;;;;;;10.02;8.20;;;14.50;99.90;;;14.44;100.00;102030.94;4202139;28;20064;-68
2021/09/01 05:15:42;;;;;;;16.00;8.80;;;14.50;99.90;;;14.42;100.00;102041.72;4168911;28;20068;-68
2021/09/01 05:17:43;;;;;;;16.65;9.30;;;14.50;99.90;;;14.30;100.00;102033.13;4168890;28;20052;-68
2021/09/01 05:19:44;;;;;;;12.63;7.80;;;14.40;99.90;;;14.26;100.00;102047.66;4170106;28;20029;-68
2021/09/01 05:21:53;;;;;;;16.33;8.35;;;14.40;99.90;;;14.24;100.00;102048.78;4185105;28;20067;-68
2021/09/01 05:23:56;;;;;;;12.95;9.98;;;14.40;99.90;;;14.20;100.00;102042.09;4169822;28;20079;-68
2021/09/01 05:26:01;;;;;;;14.37;9.27;;;14.30;99.90;;;14.33;100.00;102043.47;4170155;28;20075;-68
2021/09/01 05:28:04;;;;;;;18.92;8.57;;;14.30;99.90;;;14.25;100.00;102043.31;4201476;28;20624;-68
2021/09/01 05:30:09;;;;;;;15.05;8.32;;;14.30;99.90;;;14.24;100.00;102044.31;4168676;28;20116;-68
2021/09/01 05:32:22;;;;;;;16.23;9.75;;;14.30;99.90;;;14.40;100.00;102044.53;4201133;28;20177;-68
2021/09/01 05:34:25;;;;;;;14.13;8.38;;;14.30;99.90;;;14.28;100.00;102035.06;4201658;28;20028;-68
2021/09/01 05:36:26;;;;;;;12.85;8.55;;;14.40;99.90;;;14.22;100.00;102037.47;4196086;28;20021;-68
2021/09/01 05:38:31;;;;;;;17.38;9.13;;;14.40;99.90;;;14.42;100.00;102049.69;4189080;28;20067;-68
2021/09/01 05:40:32;;;;;;;14.57;9.35;;;14.40;99.90;;;14.42;99.98;102052.34;4169670;28;20025;-68
2021/09/01 05:42:33;;;;;;;14.10;8.60;;;14.40;99.90;;;14.37;100.00;102047.47;4152654;28;20030;-68
2021/09/01 05:44:36;;;;;;;14.93;8.55;;;14.40;99.90;;;14.44;100.00;102054.84;4169639;28;20056;-68
2021/09/01 05:46:38;;;;;;;14.25;9.88;;;14.40;99.90;;;14.29;100.00;102047.34;4169584;28;20088;-68
2021/09/01 05:48:39;;;;;;;12.55;9.55;;;14.40;99.90;;;14.21;100.00;102052.56;4170999;28;20041;-68
2021/09/01 05:50:42;;;;;;;12.45;8.55;;;14.40;99.90;;;14.29;100.00;102046.53;4169233;28;20021;-68
2021/09/01 05:52:44;;;;;;;15.70;8.65;;;14.40;99.90;;;14.42;100.00;102062.13;4152888;28;20096;-68
2021/09/01 05:54:49;;;;;;;15.48;9.25;;;14.40;99.90;;;14.46;100.00;102051.06;4164567;28;20033;-68
2021/09/01 05:56:55;;;;;;;14.65;7.97;;;14.40;99.90;;;14.43;100.00;102058.47;4169435;28;20025;-68
2021/09/01 05:59:06;;;;;;;11.40;7.72;;;14.50;99.90;;;14.40;100.00;102055.13;4200332;28;20060;-68
2021/09/01 06:01:14;;;;;;;17.17;10.35;;;14.50;99.90;;;14.25;100.00;102051.28;4169669;28;20040;-69
2021/09/01 06:03:24;;;;;;;18.25;8.43;;;14.50;99.90;;;14.30;100.00;102062.31;4157810;28;20074;-68
2021/09/01 06:05:28;;;;;;;19.42;10.60;;;14.50;99.90;;;14.31;100.00;102037.41;4170024;28;20489;-68
2021/09/01 06:07:30;;;;;;;18.27;10.88;;;14.50;99.90;;;14.51;99.50;102063.91;4165290;28;20432;-68
2021/09/01 06:09:35;;;;;;;18.45;9.10;;;14.60;99.90;;;14.52;100.00;102055.75;4165648;28;20057;-68
2021/09/01 06:11:39;;;;;;;14.80;8.05;;;14.60;99.90;;;14.49;100.00;102065.84;4168351;28;20042;-68
2021/09/01 06:13:40;;;;;;;15.55;8.80;;;14.60;99.90;;;14.45;100.00;102056.53;4166159;28;20052;-68
2021/09/01 06:15:42;;;;;;;15.20;9.30;;;14.60;99.90;;;14.61;100.00;102064.66;4155387;28;20080;-68
2021/09/01 06:17:43;;;;;;;16.30;10.32;;;14.60;99.90;;;14.66;100.00;102062.41;4152833;28;20034;-68
2021/09/01 06:19:45;;;;;;;20.17;9.95;;;14.70;99.90;;;14.58;99.94;102062.28;4153353;28;20085;-68
2021/09/01 06:21:46;;;;;;;16.52;9.80;;;14.80;99.90;;;14.63;100.00;102071.50;4153115;28;20117;-68
2021/09/01 06:23:47;;;;;;;19.25;10.88;;;14.80;99.90;;;14.62;99.83;102051.25;4152617;28;20028;-68
2021/09/01 06:25:49;;;;;;;16.70;9.90;;;14.80;99.90;;;14.68;100.00;102071.03;4157558;28;20033;-68
2021/09/01 06:27:50;;;;;;;15.32;10.80;;;14.90;99.90;;;14.68;100.00;102073.69;4168241;28;20028;-68
2021/09/01 06:29:51;;;;;;;14.95;10.65;;;14.90;99.90;;;14.75;100.00;102083.59;4166912;28;20033;-68
2021/09/01 06:31:53;;;;;;;21.77;11.15;;;15.00;99.90;;;14.72;100.00;102075.91;4167054;28;20049;-68
2021/09/01 06:33:54;;;;;;;18.75;10.70;;;15.00;99.90;;;14.83;99.54;102091.63;4166738;28;20037;-68
2021/09/01 06:35:54;;;;;;;16.08;10.40;;;15.00;99.90;;;14.84;100.00;102081.84;4167065;28;20041;-68
2021/09/01 06:37:55;;;;;;;24.38;11.70;;;15.00;99.90;;;14.78;99.77;102079.78;4165981;28;20493;-68
2021/09/01 06:39:56;;;;;;;18.73;11.13;;;15.10;99.90;;;14.79;100.00;102081.44;4166024;28;20568;-68
2021/09/01 06:41:57;;;;;;;23.30;11.05;;;15.10;99.90;;;14.91;100.00;102098.84;4166103;28;20083;-68
2021/09/01 06:43:58;;;;;;;20.73;11.23;;;15.10;99.90;;;14.93;99.96;102094.22;4166767;28;20398;-68
2021/09/01 06:45:59;;;;;;;18.17;11.88;;;15.20;99.90;;;14.93;100.00;102088.91;4165830;28;20071;-68
2021/09/01 06:48:00;;;;;;;23.13;12.50;;;15.20;99.90;;;15.01;100.00;102106.75;4167315;28;20048;-68
2021/09/01 06:50:01;;;;;;;20.50;11.65;;;15.20;99.90;;;14.99;99.26;102096.28;4182264;28;20025;-68
2021/09/01 06:52:03;;;;;;;19.95;11.52;;;15.30;99.90;;;14.92;99.41;102098.69;4166986;28;20500;-68
2021/09/01 06:54:04;;;;;;;17.83;11.20;;;15.30;99.90;;;14.81;99.62;102093.59;4162454;28;20029;-68
2021/09/01 06:56:05;;;;;;;21.38;12.38;;;15.30;99.90;;;14.86;99.79;102093.16;4169653;28;20025;-68
2021/09/01 06:58:19;;;;;;;19.67;11.50;;;15.30;99.90;;;15.04;100.00;102106.44;4160766;28;20025;-68
2021/09/01 07:00:20;;;;;;;25.75;11.77;;;15.40;99.90;;;14.98;99.45;102102.56;4153280;28;20034;-68
2021/09/01 07:02:21;;;;;;;19.52;11.82;;;15.40;99.90;;;15.04;99.16;102103.78;4153494;28;20056;-68
2021/09/01 07:04:23;;;;;;;21.33;12.65;;;15.40;99.90;;;15.11;99.75;102105.69;4168611;28;20021;-68
2021/09/01 07:06:24;;;;;;;19.90;11.98;;;15.50;99.90;;;15.08;98.94;102113.13;4151865;28;20116;-68
2021/09/01 07:08:25;;;;;;;21.25;13.07;;;15.50;99.90;;;15.00;99.37;102105.91;4153501;28;20030;-68
2021/09/01 07:10:26;;;;;;;19.92;12.73;;;15.60;99.90;;;15.03;99.84;102087.00;4153258;28;20374;-68
2021/09/01 07:12:29;;;;;;;21.50;12.88;;;15.60;99.90;;;15.09;98.84;102094.34;4153493;28;20044;-68
2021/09/01 07:14:30;;;;;;;22.00;13.63;;;15.60;99.90;;;15.18;98.47;102104.06;4152062;28;20029;-68
2021/09/01 07:16:34;;;;;;;20.13;11.40;;;15.60;99.90;;;15.19;98.34;102094.28;4153226;28;20022;-68
2021/09/01 07:18:35;;;;;;;16.20;11.13;;;15.60;99.90;;;15.15;98.74;102091.09;4153160;28;20022;-68
2021/09/01 07:20:38;;;;;;;18.63;12.10;;;15.70;99.90;;;15.32;98.21;102103.53;4152908;28;20108;-68
2021/09/01 07:22:39;;;;;;;18.30;12.40;;;15.70;99.90;;;15.45;97.27;102114.63;4150455;28;20034;-68
2021/09/01 07:24:40;;;;;;;21.20;11.85;;;15.80;99.90;;;15.37;97.23;102125.19;4152154;28;20022;-68
2021/09/01 07:26:40;;;;;;;17.92;11.88;;;15.80;99.90;;;15.48;97.20;102127.63;4152104;28;20033;-69
2021/09/01 07:28:41;;;;;;;16.70;11.02;;;15.90;99.90;;;15.57;97.80;102133.00;4165287;28;20057;-68
2021/09/01 07:30:42;;;;;;;20.70;12.25;;;16.00;99.90;;;15.44;96.59;102120.91;4168476;28;20065;-69
2021/09/01 07:32:43;;;;;;;19.85;11.00;;;16.00;99.90;;;15.63;96.07;102127.06;4165923;28;20110;-69
2021/09/01 07:34:44;;;;;;;22.85;12.35;;;16.10;99.90;;;15.68;95.34;102122.16;4166971;28;20033;-69
2021/09/01 07:36:45;;;;;;;21.30;11.13;;;16.20;99.90;;;15.67;95.87;102131.09;4168020;28;20493;-69
2021/09/01 07:38:46;;;;;;;20.00;11.25;;;16.20;99.90;;;15.83;95.67;102125.91;4168196;28;20081;-69
2021/09/01 07:40:47;;;;;;;18.42;12.35;;;16.20;99.90;;;15.83;94.77;102120.59;4167247;28;20025;-69
2021/09/01 07:42:48;;;;;;;20.55;12.90;;;16.30;99.90;;;15.82;95.17;102130.38;4167193;28;20061;-69
2021/09/01 07:44:49;;;;;;;19.10;12.93;;;16.40;99.90;;;15.89;94.40;102127.91;4166948;28;20022;-69
2021/09/01 07:46:50;;;;;;;22.23;12.52;;;16.40;99.90;;;15.55;94.31;102084.47;4168004;28;20037;-69
2021/09/01 07:48:51;;;;;;;18.42;12.35;;;16.40;99.90;;;15.78;94.15;102139.66;4167052;28;20044;-69
2021/09/01 07:50:52;;;;;;;19.92;12.45;;;16.40;99.90;;;15.90;94.84;102137.56;4167928;28;20072;-69
2021/09/01 07:52:54;;;;;;;17.88;11.52;;;16.40;99.90;;;15.93;94.31;102131.94;4166818;28;20026;-69
2021/09/01 07:54:54;;;;;;;17.25;11.45;;;16.50;99.90;;;16.08;94.26;102143.69;4167908;28;20045;-69
2021/09/01 07:56:55;;;;;;;19.17;13.18;;;16.60;99.90;;;16.06;93.37;102127.03;4167879;28;20034;-69
2021/09/01 07:58:56;;;;;;;25.50;13.73;;;16.60;99.90;;;16.10;93.68;102132.88;4167955;28;20049;-69
2021/09/01 08:00:57;;;;;;;17.25;12.55;;;16.70;99.90;;;16.14;93.25;102127.06;4183143;28;20017;-69
2021/09/01 08:02:58;;;;;;;19.80;11.70;;;16.70;99.90;;;16.23;93.04;102134.09;4167872;28;20033;-69
2021/09/01 08:04:59;;;;;;;17.98;12.40;;;16.70;99.90;;;16.27;92.21;102139.97;4168014;28;20049;-69
2021/09/01 08:07:00;;;;;;;18.27;12.57;;;16.80;99.90;;;16.26;92.43;102127.63;4169384;28;20117;-69
2021/09/01 08:09:01;;;;;;;16.67;11.25;;;16.90;99.90;;;16.30;92.06;102131.66;4169993;28;20021;-69
2021/09/01 08:11:02;;;;;;;20.35;13.05;;;16.90;99.90;;;16.29;90.72;102140.63;4169953;28;20044;-69
2021/09/01 08:13:03;;;;;;;21.17;13.23;;;17.00;99.90;;;16.34;91.31;102136.47;4171173;28;20025;-69
2021/09/01 08:15:06;;;;;;;18.20;11.70;;;17.00;99.90;;;16.38;91.89;102135.19;4170016;28;20118;-69
2021/09/01 08:17:07;;;;;;;21.27;12.40;;;17.10;99.90;;;16.38;91.03;102131.69;4169859;28;20026;-69